Time;durP1;ratioP1;P1;durP2;ratioP2;P2;SDS_P1;SDS_P2;PMS_P1;PMS_P2;Temp;Humidity;BMP_temperature;BMP_pressure;BME280_temperature;BME280_humidity;BME280_pressure;Samples;Min_cycle;Max_cycle;Signal;HPM_P1;HPM_P2
2024/01/30 00:01:43;;;;;;;10.65;7.53;;;;;;;12.87;60.99;100143.56;5092050;28;20028;-49
2024/01/30 00:04:09;;;;;;;13.80;9.40;;;;;;;12.96;62.12;100142.50;5107700;28;20020;-49
2024/01/30 00:06:34;;;;;;;14.48;9.23;;;;;;;12.99;61.08;100147.38;5091991;28;20028;-49
2024/01/30 00:09:00;;;;;;;13.23;7.78;;;;;;;12.86;61.70;100134.84;5107540;28;20394;-49
2024/01/30 00:11:26;;;;;;;12.70;8.68;;;;;;;12.74;61.93;100144.19;5107579;28;20558;-49
2024/01/30 00:13:52;;;;;;;12.48;7.68;;;;;;;12.89;63.05;100142.38;5091914;28;20024;-49
2024/01/30 00:16:23;;;;;;;13.45;7.07;;;;;;;13.03;62.86;100135.50;5091861;28;20024;-49
2024/01/30 00:18:51;;;;;;;13.38;9.23;;;;;;;13.18;63.47;100138.16;5091911;28;20499;-49
2024/01/30 00:21:16;;;;;;;15.93;7.80;;;;;;;13.39;62.60;100132.97;5091739;28;20027;-49
2024/01/30 00:23:42;;;;;;;15.52;9.80;;;;;;;13.40;62.09;100123.28;5107441;28;20111;-49
2024/01/30 00:26:08;;;;;;;18.88;10.60;;;;;;;13.42;62.29;100136.25;5091731;28;20024;-49
2024/01/30 00:28:34;;;;;;;11.90;6.75;;;;;;;13.38;62.04;100131.34;5090474;28;20031;-49
2024/01/30 00:30:59;;;;;;;17.40;10.38;;;;;;;13.24;62.76;100129.50;5107350;28;20519;-49
2024/01/30 00:33:25;;;;;;;9.52;7.03;;;;;;;13.08;62.74;100130.50;5090398;28;20024;-49
2024/01/30 00:35:51;;;;;;;12.60;9.07;;;;;;;12.96;64.22;100135.41;5091759;28;20028;-49
2024/01/30 00:38:17;;;;;;;10.57;8.00;;;;;;;13.00;64.47;100127.97;5106995;28;20101;-50
2024/01/30 00:40:43;;;;;;;16.85;14.32;;;;;;;12.98;64.05;100125.50;5107315;28;20029;-50
2024/01/30 00:43:09;;;;;;;15.43;9.07;;;;;;;12.94;65.08;100120.78;5090396;28;20050;-49
2024/01/30 00:45:34;;;;;;;14.35;9.57;;;;;;;12.78;64.88;100132.28;5091681;28;20028;-49
2024/01/30 00:48:00;;;;;;;17.08;10.43;;;;;;;12.75;66.39;100127.34;5107314;28;20069;-49
2024/01/30 00:50:26;;;;;;;17.60;8.77;;;;;;;12.73;65.86;100124.09;5091523;28;20028;-50
2024/01/30 00:52:52;;;;;;;14.90;8.77;;;;;;;12.75;66.48;100117.63;5107581;28;20118;-49
2024/01/30 00:55:17;;;;;;;17.95;10.55;;;;;;;12.88;66.22;100119.66;5107186;28;20020;-49
2024/01/30 00:57:43;;;;;;;20.17;11.43;;;;;;;12.89;65.83;100131.03;5091629;28;20474;-49
2024/01/30 01:00:09;;;;;;;15.73;9.05;;;;;;;12.81;65.96;100129.28;5090106;28;20031;-49
2024/01/30 01:02:36;;;;;;;13.13;8.70;;;;;;;12.69;65.98;100130.72;5091537;28;20032;-49
2024/01/30 01:05:02;;;;;;;19.30;11.65;;;;;;;12.56;66.35;100139.22;5107100;28;20020;-49
2024/01/30 01:07:28;;;;;;;12.85;9.38;;;;;;;12.57;66.51;100141.66;5090118;28;20443;-49
2024/01/30 01:09:54;;;;;;;15.65;8.75;;;;;;;12.60;66.77;100129.97;5107020;28;20116;-50
2024/01/30 01:12:19;;;;;;;13.93;9.65;;;;;;;12.56;66.52;100132.13;5110795;28;22253;-50
2024/01/30 01:14:45;;;;;;;15.43;9.98;;;;;;;12.67;67.17;100130.88;5095202;28;20032;-49
2024/01/30 01:17:11;;;;;;;12.45;9.05;;;;;;;12.77;66.36;100133.25;5110805;28;20455;-49
2024/01/30 01:19:37;;;;;;;14.02;9.77;;;;;;;12.70;66.09;100132.38;5095164;28;20043;-49
2024/01/30 01:22:03;;;;;;;11.15;8.25;;;;;;;12.66;67.07;100138.97;5094953;28;20024;-49
2024/01/30 01:24:31;;;;;;;21.77;11.18;;;;;;;12.77;66.81;100141.97;5110702;28;20501;-49
2024/01/30 01:26:58;;;;;;;13.57;8.43;;;;;;;12.86;66.41;100134.84;5093603;28;20110;-49
2024/01/30 01:29:30;;;;;;;18.75;9.32;;;;;;;12.89;66.42;100134.47;5093593;28;20016;-50
2024/01/30 01:31:56;;;;;;;15.25;9.95;;;;;;;12.89;66.36;100126.56;5110564;28;20058;-49
2024/01/30 01:34:25;;;;;;;20.35;12.18;;;;;;;12.97;66.28;100128.31;5094868;28;20490;-49
2024/01/30 01:36:55;;;;;;;16.15;10.45;;;;;;;13.11;66.23;100134.59;5094774;28;20110;-49
2024/01/30 01:39:23;;;;;;;13.13;9.48;;;;;;;13.20;65.91;100133.50;5094516;28;20055;-50
2024/01/30 01:41:48;;;;;;;14.18;9.88;;;;;;;13.25;65.68;100119.78;5094591;28;20044;-50
2024/01/30 01:44:14;;;;;;;19.30;11.82;;;;;;;13.39;66.11;100134.81;5110281;28;20161;-49
2024/01/30 01:46:40;;;;;;;16.30;10.93;;;;;;;13.39;65.06;100138.25;5093278;28;20409;-49
2024/01/30 01:49:07;;;;;;;11.85;8.23;;;;;;;13.28;64.97;100145.75;5093143;28;20127;-49
2024/01/30 01:51:35;;;;;;;13.40;8.35;;;;;;;13.18;65.22;100153.97;5093116;28;20016;-49
2024/01/30 01:54:05;;;;;;;25.65;18.25;;;;;;;13.06;64.83;100145.69;5110047;28;20027;-49
2024/01/30 01:56:32;;;;;;;17.95;12.20;;;;;;;12.97;65.76;100144.13;5094406;28;20032;-49
2024/01/30 01:59:04;;;;;;;19.08;14.38;;;;;;;12.96;65.63;100150.41;5094411;28;20074;-49
2024/01/30 02:01:32;;;;;;;19.80;11.50;;;;;;;13.05;65.94;100145.84;5094252;28;20040;-49
2024/01/30 02:03:59;;;;;;;19.55;10.13;;;;;;;13.05;65.92;100143.22;5092949;28;20052;-50
2024/01/30 02:06:24;;;;;;;10.90;8.55;;;;;;;12.98;65.09;100138.66;5094175;28;20023;-49
2024/01/30 02:08:50;;;;;;;16.73;8.90;;;;;;;12.94;66.04;100141.84;5109900;28;20020;-49
2024/01/30 02:11:16;;;;;;;15.90;9.30;;;;;;;12.90;66.30;100137.94;5109697;28;20032;-49
2024/01/30 02:13:42;;;;;;;15.07;9.02;;;;;;;12.88;66.46;100145.22;5094034;28;20028;-49
2024/01/30 02:16:08;;;;;;;14.45;10.88;;;;;;;12.99;67.42;100145.56;5109678;28;20039;-49
2024/01/30 02:18:33;;;;;;;28.30;16.83;;;;;;;13.17;67.88;100137.31;5092643;28;20024;-49
2024/01/30 02:21:04;;;;;;;16.88;11.43;;;;;;;13.31;66.02;100143.63;5093562;28;20031;-49
2024/01/30 02:23:30;;;;;;;14.15;10.35;;;;;;;13.36;65.88;100135.16;5093968;28;20028;-49
2024/01/30 02:25:56;;;;;;;17.23;9.82;;;;;;;13.45;65.16;100141.16;5092491;28;20063;-49
2024/01/30 02:28:22;;;;;;;11.40;8.77;;;;;;;13.44;64.64;100150.06;5093791;28;20051;-49
2024/01/30 02:30:47;;;;;;;25.15;18.60;;;;;;;13.35;64.65;100142.25;5109348;28;20024;-50
2024/01/30 02:33:13;;;;;;;15.05;12.07;;;;;;;13.39;64.87;100130.34;5092375;28;20375;-49
2024/01/30 02:35:39;;;;;;;27.80;22.42;;;;;;;13.35;64.38;100136.97;5093679;28;20023;-49
2024/01/30 02:38:05;;;;;;;19.77;11.57;;;;;;;13.46;64.86;100141.00;5091983;28;20423;-50
2024/01/30 02:40:31;;;;;;;17.98;10.30;;;;;;;13.45;64.59;100133.25;5093589;28;20048;-49
2024/01/30 02:42:59;;;;;;;15.90;8.45;;;;;;;13.57;64.09;100139.69;5093507;28;20478;-49
2024/01/30 02:45:25;;;;;;;78.25;20.02;;;;;;;13.57;66.25;100134.44;5092233;28;20478;-49
2024/01/30 02:47:52;;;;;;;16.30;12.23;;;;;;;13.48;64.83;100135.50;5093414;28;20512;-49
2024/01/30 02:50:17;;;;;;;19.10;12.25;;;;;;;13.44;64.83;100134.25;5091886;28;20037;-49
2024/01/30 02:52:43;;;;;;;15.10;10.32;;;;;;;13.59;64.33;100132.41;5092008;28;20028;-49
2024/01/30 02:55:09;;;;;;;69.97;14.98;;;;;;;13.58;63.96;100138.69;5091891;28;20444;-49
2024/01/30 02:57:35;;;;;;;23.10;10.07;;;;;;;13.47;63.87;100142.63;5093180;28;20035;-49
2024/01/30 03:00:02;;;;;;;14.40;10.00;;;;;;;13.27;63.81;100128.31;5091790;28;20032;-50
2024/01/30 03:02:28;;;;;;;14.18;8.93;;;;;;;13.22;64.78;100128.03;5093076;28;20073;-49
2024/01/30 03:04:54;;;;;;;13.25;9.13;;;;;;;13.28;64.69;100124.66;5108711;28;20020;-49
2024/01/30 03:07:20;;;;;;;14.38;9.13;;;;;;;13.31;64.09;100133.06;5108708;28;20043;-49
2024/01/30 03:09:45;;;;;;;11.65;9.48;;;;;;;13.27;64.26;100126.50;5092959;28;20478;-48
2024/01/30 03:12:11;;;;;;;16.75;12.80;;;;;;;13.27;64.43;100129.13;5092843;28;20024;-50
2024/01/30 03:14:37;;;;;;;25.30;13.63;;;;;;;13.29;64.40;100126.31;5092951;28;20420;-49
2024/01/30 03:17:03;;;;;;;14.57;11.38;;;;;;;13.33;64.40;100135.53;5091551;28;20028;-49
2024/01/30 03:19:29;;;;;;;19.05;11.02;;;;;;;13.31;64.09;100133.06;5092816;28;20535;-49
2024/01/30 03:21:54;;;;;;;16.77;9.90;;;;;;;13.38;64.16;100128.72;5092775;28;20537;-49
2024/01/30 03:24:20;;;;;;;12.68;7.90;;;;;;;13.35;63.42;100130.91;5092701;28;20363;-49
2024/01/30 03:26:46;;;;;;;15.00;8.85;;;;;;;13.23;63.98;100135.78;5108326;28;20482;-49
2024/01/30 03:29:12;;;;;;;14.70;8.77;;;;;;;13.34;64.53;100134.53;5108207;28;20533;-49
2024/01/30 03:31:39;;;;;;;16.33;10.40;;;;;;;13.27;63.76;100137.03;5092541;28;20035;-49
2024/01/30 03:34:05;;;;;;;14.40;9.60;;;;;;;13.27;64.37;100126.50;5091789;28;20024;-50
2024/01/30 03:36:33;;;;;;;17.30;10.15;;;;;;;13.30;64.05;100128.81;5108124;28;20076;-49
2024/01/30 03:38:59;;;;;;;13.05;9.27;;;;;;;13.24;63.61;100129.50;5092272;28;20035;-49
2024/01/30 03:41:25;;;;;;;14.18;7.93;;;;;;;13.24;63.74;100123.41;5108074;28;20482;-49
2024/01/30 03:43:50;;;;;;;10.77;7.60;;;;;;;13.15;63.70;100141.94;5091177;28;20024;-49
2024/01/30 03:46:17;;;;;;;15.60;8.40;;;;;;;13.05;64.27;100143.22;5092319;28;20035;-49
2024/01/30 03:48:42;;;;;;;15.55;9.77;;;;;;;13.14;64.45;100137.69;5092304;28;20030;-49
2024/01/30 03:51:14;;;;;;;15.90;9.48;;;;;;;13.07;64.03;100141.22;5090836;28;20111;-50
2024/01/30 03:53:41;;;;;;;14.60;9.43;;;;;;;12.97;64.36;100139.66;5107937;28;20039;-50
2024/01/30 03:56:07;;;;;;;20.42;11.00;;;;;;;12.95;64.49;100139.00;5107855;28;20339;-49
2024/01/30 03:58:32;;;;;;;30.55;27.40;;;;;;;12.98;64.92;100149.22;5090896;28;20020;-49
2024/01/30 04:00:58;;;;;;;32.42;28.23;;;;;;;13.12;64.65;100138.84;5090735;28;20034;-49
2024/01/30 04:03:24;;;;;;;17.30;12.30;;;;;;;13.13;64.23;100143.94;5090760;28;20127;-49
2024/01/30 04:05:52;;;;;;;41.95;37.13;;;;;;;13.15;64.34;100143.78;5092070;28;20402;-48
2024/01/30 04:08:18;;;;;;;20.10;13.43;;;;;;;13.31;64.60;100134.91;5091939;28;20107;-49
2024/01/30 04:10:44;;;;;;;19.25;15.00;;;;;;;13.43;63.04;100133.44;5092170;28;20112;-50
2024/01/30 04:13:10;;;;;;;12.10;8.80;;;;;;;13.38;63.06;100141.06;5090680;28;20024;-50
2024/01/30 04:15:35;;;;;;;14.35;9.25;;;;;;;13.32;63.09;100142.63;5107823;28;20028;-49
2024/01/30 04:18:01;;;;;;;22.63;12.60;;;;;;;13.25;63.25;100149.59;5091918;28;20028;-49
2024/01/30 04:20:27;;;;;;;16.63;8.73;;;;;;;13.16;63.48;100140.16;5091919;28;20024;-49
2024/01/30 04:22:53;;;;;;;12.73;8.13;;;;;;;13.12;63.31;100139.69;5091862;28;20039;-50
2024/01/30 04:25:19;;;;;;;17.33;10.63;;;;;;;13.16;64.14;100142.78;5091813;28;20493;-50
2024/01/30 04:27:44;;;;;;;11.27;8.60;;;;;;;13.35;63.46;100142.25;5091871;28;20046;-50
2024/01/30 04:30:10;;;;;;;17.05;9.77;;;;;;;13.33;62.80;100144.25;5091960;28;20061;-49
2024/01/30 04:32:37;;;;;;;13.27;8.27;;;;;;;13.22;63.17;100144.69;5091843;28;20036;-50
2024/01/30 04:35:03;;;;;;;12.20;7.60;;;;;;;13.15;62.95;100154.31;5107452;28;20027;-49
2024/01/30 04:37:29;;;;;;;14.00;7.57;;;;;;;13.05;63.50;100145.84;5107071;28;20028;-50
2024/01/30 04:39:55;;;;;;;13.50;8.35;;;;;;;12.90;63.60;100144.03;5091769;28;20024;-49
2024/01/30 04:42:20;;;;;;;14.98;9.10;;;;;;;12.90;64.76;100144.03;5107311;28;20115;-49
2024/01/30 04:44:46;;;;;;;17.60;8.27;;;;;;;12.90;64.42;100144.03;5092963;28;20032;-49
2024/01/30 04:47:15;;;;;;;12.02;8.45;;;;;;;12.88;64.74;100147.84;5095725;28;20563;-50
2024/01/30 04:49:41;;;;;;;10.02;7.10;;;;;;;12.90;64.25;100144.03;5095686;28;20048;-50
2024/01/30 04:52:07;;;;;;;16.20;9.63;;;;;;;12.75;65.00;100143.97;5095650;28;20107;-49
2024/01/30 04:54:34;;;;;;;18.70;11.20;;;;;;;12.88;66.00;100143.38;5095652;28;20512;-49
2024/01/30 04:57:00;;;;;;;14.43;9.82;;;;;;;13.15;65.44;100149.03;5095590;28;20028;-50
2024/01/30 04:59:26;;;;;;;15.40;8.98;;;;;;;13.44;63.96;100135.09;5094195;28;20085;-49
2024/01/30 05:01:52;;;;;;;14.43;9.85;;;;;;;13.59;63.21;100140.34;5111182;28;20028;-49
2024/01/30 05:04:18;;;;;;;21.10;13.73;;;;;;;13.55;62.96;100142.53;5111105;28;20032;-49
2024/01/30 05:06:44;;;;;;;14.38;8.18;;;;;;;13.70;62.08;100146.94;5094081;28;20103;-50
2024/01/30 05:09:11;;;;;;;15.40;8.70;;;;;;;13.65;62.47;100142.25;5110887;28;20482;-49
2024/01/30 05:11:41;;;;;;;11.15;7.80;;;;;;;13.78;61.75;100144.19;5095333;28;20111;-50
2024/01/30 05:14:07;;;;;;;19.27;9.43;;;;;;;13.87;61.95;100144.94;5110921;28;20085;-49
2024/01/30 05:16:33;;;;;;;14.05;7.45;;;;;;;13.99;60.51;100149.53;5110899;28;20026;-49
2024/01/30 05:18:59;;;;;;;19.65;10.40;;;;;;;13.93;60.66;100146.81;5110780;28;20032;-49
2024/01/30 05:21:25;;;;;;;18.60;10.07;;;;;;;13.96;60.91;100154.34;5095089;28;20047;-49
2024/01/30 05:23:52;;;;;;;14.35;8.18;;;;;;;13.84;60.24;100161.13;5095083;28;20031;-49
2024/01/30 05:26:18;;;;;;;10.68;7.65;;;;;;;13.42;61.02;100170.53;5095053;28;20532;-50
2024/01/30 05:28:46;;;;;;;10.13;6.93;;;;;;;13.27;61.56;100170.50;5094996;28;20020;-49
2024/01/30 05:31:12;;;;;;;10.77;8.38;;;;;;;13.13;62.22;100175.56;5094819;28;20077;-49
2024/01/30 05:33:38;;;;;;;12.68;7.38;;;;;;;13.17;62.17;100179.50;5094985;28;20486;-49
2024/01/30 05:36:04;;;;;;;12.13;8.10;;;;;;;13.22;62.06;100181.59;5095060;28;20554;-49
2024/01/30 05:38:31;;;;;;;13.38;7.82;;;;;;;13.26;62.84;100180.25;5110191;28;20044;-49
2024/01/30 05:40:58;;;;;;;11.43;7.63;;;;;;;13.44;62.35;100181.72;5094697;28;20020;-49
2024/01/30 05:43:24;;;;;;;8.38;6.72;;;;;;;13.55;61.49;100184.72;5094645;28;20062;-49
2024/01/30 05:45:50;;;;;;;12.82;7.63;;;;;;;13.37;61.32;100184.28;5094655;28;20016;-50
2024/01/30 05:48:16;;;;;;;20.30;9.93;;;;;;;13.19;61.64;100192.50;5094565;28;20145;-49
2024/01/30 05:50:42;;;;;;;16.45;10.10;;;;;;;13.18;62.35;100186.41;5094487;28;20493;-49
2024/01/30 05:53:08;;;;;;;23.70;12.18;;;;;;;13.31;63.06;100190.28;5094469;28;20024;-49
2024/01/30 05:55:33;;;;;;;17.30;10.75;;;;;;;13.46;62.25;100185.00;5094356;28;20312;-49
2024/01/30 05:57:59;;;;;;;16.85;10.48;;;;;;;13.52;62.42;100189.53;5093857;28;20425;-49
2024/01/30 06:00:25;;;;;;;13.60;8.15;;;;;;;13.57;61.97;100182.72;5094387;28;20512;-49
2024/01/30 06:02:51;;;;;;;12.02;7.53;;;;;;;13.55;60.93;100176.00;5110001;28;20016;-49
2024/01/30 06:05:17;;;;;;;14.80;9.43;;;;;;;13.53;61.61;100172.72;5109899;28;20032;-49
2024/01/30 06:07:42;;;;;;;18.75;10.82;;;;;;;13.66;61.98;100178.19;5109911;28;20024;-49
2024/01/30 06:10:08;;;;;;;12.95;7.90;;;;;;;13.68;60.08;100176.19;5092806;28;20028;-49
2024/01/30 06:12:38;;;;;;;12.27;9.45;;;;;;;13.44;60.33;100185.19;5094443;28;20385;-49
2024/01/30 06:15:04;;;;;;;10.10;8.38;;;;;;;13.30;60.67;100186.81;5094054;28;20532;-47
2024/01/30 06:17:30;;;;;;;16.10;10.27;;;;;;;13.07;61.42;100191.31;5094037;28;20016;-47
2024/01/30 06:19:56;;;;;;;16.38;9.68;;;;;;;12.79;61.67;100202.41;5092761;28;20073;-47
2024/01/30 06:22:21;;;;;;;15.75;9.20;;;;;;;12.42;62.19;100201.38;5094154;28;20494;-47
2024/01/30 06:24:50;;;;;;;14.57;9.00;;;;;;;12.01;63.70;100204.22;5093948;28;20028;-47
2024/01/30 06:27:17;;;;;;;14.68;10.50;;;;;;;11.99;64.69;100214.94;5093803;28;20509;-47
2024/01/30 06:29:43;;;;;;;13.65;9.20;;;;;;;11.91;65.06;100207.09;5092436;28;20024;-47
2024/01/30 06:32:09;;;;;;;16.08;10.50;;;;;;;11.99;64.84;100211.47;5109412;28;20123;-47
2024/01/30 06:34:35;;;;;;;20.58;10.95;;;;;;;11.85;64.87;100215.63;5093697;28;20084;-49
2024/01/30 06:37:01;;;;;;;14.93;10.60;;;;;;;11.60;65.53;100214.88;5093656;28;20020;-49
2024/01/30 06:39:28;;;;;;;16.05;11.50;;;;;;;11.49;66.14;100220.47;5093277;28;20105;-49
2024/01/30 06:41:54;;;;;;;13.15;10.00;;;;;;;11.39;66.69;100218.88;5093494;28;20498;-49
2024/01/30 06:44:21;;;;;;;18.42;10.00;;;;;;;11.27;66.83;100214.97;5092150;28;20038;-49
2024/01/30 06:46:46;;;;;;;13.48;10.52;;;;;;;11.31;66.98;100223.34;5093484;28;20060;-48
2024/01/30 06:49:12;;;;;;;13.50;10.73;;;;;;;11.32;67.14;100214.47;5091964;28;20489;-47
2024/01/30 06:51:38;;;;;;;18.38;11.15;;;;;;;11.43;67.15;100211.50;5093369;28;20115;-47
2024/01/30 06:54:04;;;;;;;16.67;10.38;;;;;;;11.56;66.70;100209.13;5093305;28;20024;-47
2024/01/30 06:56:30;;;;;;;16.35;11.27;;;;;;;11.76;65.97;100209.56;5093183;28;20028;-47
2024/01/30 06:58:58;;;;;;;15.48;11.45;;;;;;;11.70;65.60;100212.88;5091929;28;20020;-47
2024/01/30 07:01:30;;;;;;;19.52;12.45;;;;;;;11.62;65.20;100218.16;5093188;28;20402;-48
2024/01/30 07:03:56;;;;;;;16.23;11.55;;;;;;;11.53;66.36;100213.91;5092136;28;20026;-47
2024/01/30 07:06:22;;;;;;;19.58;12.55;;;;;;;11.56;65.93;100214.38;5093097;28;20571;-47
2024/01/30 07:08:49;;;;;;;20.67;12.23;;;;;;;11.66;65.38;100222.09;5091930;28;20024;-47
2024/01/30 07:11:22;;;;;;;14.82;11.98;;;;;;;11.69;65.18;100216.50;5092836;28;20028;-49
2024/01/30 07:13:48;;;;;;;16.13;12.75;;;;;;;11.75;65.05;100223.72;5092886;28;20032;-49
2024/01/30 07:16:17;;;;;;;18.65;12.63;;;;;;;11.71;65.21;100222.41;5092851;28;20098;-49
2024/01/30 07:18:44;;;;;;;15.55;12.57;;;;;;;11.73;64.97;100223.06;5091479;28;20028;-49
2024/01/30 07:21:10;;;;;;;22.90;12.48;;;;;;;11.86;65.02;100219.88;5091743;28;20050;-49
2024/01/30 07:23:38;;;;;;;20.25;11.95;;;;;;;12.04;64.45;100237.28;5092736;28;20494;-49
2024/01/30 07:26:08;;;;;;;16.60;12.35;;;;;;;12.45;63.12;100235.22;5092557;28;20028;-49
2024/01/30 07:28:35;;;;;;;15.40;12.68;;;;;;;12.69;61.56;100231.63;5092631;28;20457;-49
2024/01/30 07:31:04;;;;;;;14.98;12.20;;;;;;;12.84;61.18;100236.13;5092495;28;20020;-50
2024/01/30 07:33:29;;;;;;;16.30;12.48;;;;;;;12.97;60.48;100236.34;5092567;28;20113;-49
2024/01/30 07:35:55;;;;;;;19.20;12.48;;;;;;;12.85;60.55;100233.31;5092562;28;20109;-49
2024/01/30 07:38:22;;;;;;;16.67;13.57;;;;;;;12.89;60.59;100231.16;5091084;28;20036;-49
2024/01/30 07:40:47;;;;;;;13.80;11.27;;;;;;;12.85;60.51;100222.78;5092404;28;20040;-49
2024/01/30 07:43:13;;;;;;;16.45;12.05;;;;;;;12.99;60.40;100229.91;5091359;28;20073;-49
2024/01/30 07:45:39;;;;;;;20.85;11.75;;;;;;;13.11;60.22;100238.19;5092320;28;20030;-49
2024/01/30 07:48:06;;;;;;;14.98;12.50;;;;;;;13.50;58.82;100225.81;5090906;28;20031;-50
2024/01/30 07:50:32;;;;;;;19.83;12.27;;;;;;;13.72;57.90;100219.66;5091160;28;20028;-49
2024/01/30 07:53:00;;;;;;;13.55;11.25;;;;;;;13.90;56.91;100226.38;5090931;28;20116;-50
2024/01/30 07:55:28;;;;;;;15.15;11.38;;;;;;;13.68;57.10;100233.38;5092149;28;20036;-49
2024/01/30 07:57:55;;;;;;;31.58;16.05;;;;;;;13.32;57.94;100237.56;5090853;28;20020;-49
2024/01/30 08:00:22;;;;;;;27.48;15.82;;;;;;;13.16;58.36;100235.06;5092015;28;20024;-49
2024/01/30 08:02:55;;;;;;;23.40;15.27;;;;;;;12.95;59.21;100236.53;5092228;28;20027;-49
2024/01/30 08:05:23;;;;;;;19.17;13.50;;;;;;;13.18;59.54;100223.31;5092010;28;20016;-49
2024/01/30 08:07:49;;;;;;;23.75;12.52;;;;;;;13.51;58.54;100235.38;5092070;28;20146;-49
2024/01/30 08:10:15;;;;;;;16.45;11.57;;;;;;;13.68;57.14;100238.66;5090642;28;20036;-49
2024/01/30 08:12:41;;;;;;;13.95;11.20;;;;;;;13.39;57.99;100238.47;5090809;28;20027;-49
2024/01/30 08:15:08;;;;;;;16.80;12.15;;;;;;;13.15;58.28;100236.03;5091841;28;20024;-49
2024/01/30 08:17:34;;;;;;;14.27;11.20;;;;;;;13.04;59.21;100247.84;5092004;28;20020;-49
2024/01/30 08:20:00;;;;;;;17.67;9.82;;;;;;;12.91;60.29;100244.97;5091616;28;20024;-49
2024/01/30 08:22:25;;;;;;;19.00;12.30;;;;;;;12.90;60.16;100252.06;5090556;28;20451;-47
2024/01/30 08:24:51;;;;;;;14.85;12.43;;;;;;;12.88;59.77;100246.16;5090572;28;20057;-49
2024/01/30 08:27:17;;;;;;;19.48;10.45;;;;;;;12.76;59.72;100247.56;5090742;28;20032;-49
2024/01/30 08:29:43;;;;;;;15.20;11.32;;;;;;;12.75;60.39;100256.44;5091625;28;20056;-49
2024/01/30 08:32:09;;;;;;;18.15;11.68;;;;;;;12.69;61.40;100257.16;5091744;28;20016;-49
2024/01/30 08:34:34;;;;;;;18.55;14.15;;;;;;;12.78;61.28;100258.75;5090487;28;20028;-49
2024/01/30 08:37:00;;;;;;;25.90;16.48;;;;;;;13.19;61.62;100259.22;5091679;28;20020;-49
2024/01/30 08:39:26;;;;;;;21.63;13.15;;;;;;;13.92;60.32;100262.16;5090146;28;20036;-49
2024/01/30 08:41:52;;;;;;;18.85;12.00;;;;;;;14.69;58.70;100265.25;5090424;28;20409;-50
2024/01/30 08:44:17;;;;;;;14.93;10.90;;;;;;;15.03;55.20;100255.81;5091693;28;20017;-49
2024/01/30 08:46:46;;;;;;;14.40;9.90;;;;;;;14.90;55.23;100256.53;5091619;28;20027;-49
2024/01/30 08:49:13;;;;;;;25.40;15.00;;;;;;;15.25;54.97;100260.09;5091627;28;20052;-50
2024/01/30 08:51:39;;;;;;;19.30;11.57;;;;;;;15.75;54.96;100254.72;5090271;28;20032;-49
2024/01/30 08:54:05;;;;;;;27.70;14.63;;;;;;;16.45;53.54;100252.75;5091490;28;20031;-49
2024/01/30 08:56:31;;;;;;;18.08;10.98;;;;;;;17.19;50.87;100258.19;5091616;28;20024;-47
2024/01/30 08:58:56;;;;;;;19.38;11.18;;;;;;;17.51;48.38;100261.84;5090227;28;20391;-47
2024/01/30 09:01:22;;;;;;;13.40;9.10;;;;;;;17.54;48.18;100245.47;5090167;28;20024;-46
2024/01/30 09:03:48;;;;;;;22.85;13.07;;;;;;;17.97;48.59;100252.97;5090257;28;20027;-46
2024/01/30 09:06:14;;;;;;;15.68;9.77;;;;;;;18.36;45.67;100246.63;5091426;28;20031;-47
2024/01/30 09:08:40;;;;;;;10.60;7.13;;;;;;;18.85;44.61;100257.59;5091520;28;20016;-47
2024/01/30 09:11:13;;;;;;;14.20;8.98;;;;;;;19.03;43.49;100261.38;5091346;28;20494;-47
2024/01/30 09:13:39;;;;;;;15.65;9.05;;;;;;;19.36;43.50;100261.91;5091464;28;20070;-47
2024/01/30 09:16:05;;;;;;;9.38;5.97;;;;;;;20.03;41.94;100255.88;5107083;28;20025;-47
2024/01/30 09:18:31;;;;;;;9.93;6.40;;;;;;;20.83;39.68;100262.81;5090199;28;20020;-47
2024/01/30 09:20:57;;;;;;;14.98;7.95;;;;;;;21.53;38.60;100263.94;5091349;28;20030;-47
2024/01/30 09:23:23;;;;;;;10.55;7.00;;;;;;;21.32;37.88;100259.97;5106913;28;20042;-47
2024/01/30 09:25:49;;;;;;;12.80;7.90;;;;;;;20.88;38.19;100265.59;5091296;28;20482;-47
2024/01/30 09:28:15;;;;;;;10.32;6.70;;;;;;;20.94;38.40;100267.34;5107168;28;20016;-47
2024/01/30 09:30:41;;;;;;;11.35;6.50;;;;;;;20.89;38.90;100272.59;5089854;28;20032;-47
2024/01/30 09:33:07;;;;;;;9.15;5.20;;;;;;;20.39;39.75;100264.06;5094413;28;20095;-47
2024/01/30 09:35:33;;;;;;;13.35;6.30;;;;;;;19.53;41.01;100272.78;5094928;28;20024;-47
2024/01/30 09:37:59;;;;;;;10.68;5.90;;;;;;;18.89;42.83;100274.75;5094614;28;20460;-47
2024/01/30 09:40:25;;;;;;;9.55;6.40;;;;;;;18.53;43.58;100278.88;5094740;28;20055;-46
2024/01/30 09:42:51;;;;;;;10.80;5.10;;;;;;;18.30;44.43;100290.00;5094766;28;20024;-47
2024/01/30 09:45:24;;;;;;;10.73;4.57;;;;;;;17.93;45.08;100273.81;5094671;28;20031;-47
2024/01/30 09:47:50;;;;;;;8.48;4.78;;;;;;;17.56;45.78;100285.91;5110624;28;20112;-47
2024/01/30 09:50:17;;;;;;;10.45;6.00;;;;;;;17.51;47.25;100285.72;5110144;28;20509;-47
2024/01/30 09:52:44;;;;;;;14.38;9.65;;;;;;;17.71;46.64;100288.34;5094537;28;20028;-47
2024/01/30 09:55:10;;;;;;;12.90;8.48;;;;;;;17.80;46.64;100291.59;5110188;28;20542;-47
2024/01/30 09:57:37;;;;;;;11.70;9.43;;;;;;;18.01;46.11;100293.19;5094523;28;20039;-46
2024/01/30 10:00:04;;;;;;;9.45;6.75;;;;;;;18.33;45.87;100294.91;5094415;28;20024;-47
2024/01/30 10:02:32;;;;;;;8.80;4.93;;;;;;;18.49;44.77;100296.28;5094349;28;20038;-47
2024/01/30 10:04:57;;;;;;;7.47;4.85;;;;;;;18.30;44.64;100294.53;5094258;28;20023;-47
2024/01/30 10:07:23;;;;;;;7.28;4.20;;;;;;;18.21;44.97;100296.59;5094279;28;20024;-47
2024/01/30 10:09:49;;;;;;;10.98;4.95;;;;;;;18.17;46.13;100292.75;5094217;28;20012;-47
2024/01/30 10:12:16;;;;;;;6.78;4.38;;;;;;;18.25;45.63;100296.97;5092922;28;20024;-46
2024/01/30 10:14:43;;;;;;;14.23;7.97;;;;;;;18.46;45.76;100296.69;5094396;28;20032;-47
2024/01/30 10:17:10;;;;;;;19.98;9.50;;;;;;;18.49;45.26;100296.28;5094100;28;20020;-47
2024/01/30 10:19:36;;;;;;;14.60;7.07;;;;;;;18.63;44.75;100294.34;5092750;28;20432;-47
2024/01/30 10:22:03;;;;;;;12.23;6.55;;;;;;;18.98;44.12;100282.50;5093938;28;20103;-47
2024/01/30 10:24:29;;;;;;;11.60;6.30;;;;;;;19.01;44.00;100284.72;5109678;28;20111;-47
2024/01/30 10:26:55;;;;;;;8.98;8.10;;;;;;;19.15;44.18;100281.72;5109665;28;20085;-47
2024/01/30 10:29:21;;;;;;;14.20;8.48;;;;;;;19.20;43.21;100283.75;5092568;28;20012;-47
2024/01/30 10:32:01;;;;;;;12.98;7.68;;;;;;;19.53;43.23;100277.31;5093804;28;20524;-47
2024/01/30 10:34:27;;;;;;;15.43;7.95;;;;;;;20.21;41.92;100278.25;5092545;28;20086;-47
2024/01/30 10:37:21;;;;;;;8.98;5.10;;;;;;;20.52;40.66;100286.03;5093671;28;20073;-47
2024/01/30 10:39:47;;;;;;;7.25;4.80;;;;;;;20.83;39.70;100273.50;5092564;28;20055;-47
2024/01/30 10:42:15;;;;;;;13.45;6.53;;;;;;;21.23;38.73;100274.69;5109061;28;20021;-47
2024/01/30 10:45:09;;;;;;;6.40;3.60;;;;;;;21.50;38.79;100272.41;5093594;28;20573;-47
2024/01/30 10:47:39;;;;;;;10.15;3.92;;;;;;;21.96;37.17;100273.41;5093481;28;20052;-47
2024/01/30 10:50:05;;;;;;;13.23;6.53;;;;;;;22.32;36.82;100274.13;5075624;28;20051;-47
2024/01/30 10:52:32;;;;;;;7.05;4.13;;;;;;;22.46;36.13;100270.13;5093416;28;20016;-47
2024/01/30 10:55:04;;;;;;;8.02;4.40;;;;;;;21.95;36.24;100274.44;5093361;28;20509;-47
2024/01/30 10:57:31;;;;;;;10.13;4.50;;;;;;;21.52;36.68;100260.44;5093202;28;20023;-47
2024/01/30 10:59:58;;;;;;;7.82;4.18;;;;;;;21.34;37.00;100271.22;5092104;28;20402;-47
2024/01/30 11:02:25;;;;;;;5.57;3.80;;;;;;;21.09;37.27;100266.94;5108815;28;20051;-47
2024/01/30 11:04:57;;;;;;;8.20;3.90;;;;;;;20.64;37.80;100266.59;5108774;28;20020;-47
2024/01/30 11:07:27;;;;;;;11.23;5.80;;;;;;;20.31;39.13;100262.50;5093120;28;20533;-47
2024/01/30 11:10:00;;;;;;;11.88;5.38;;;;;;;20.06;39.96;100266.13;5091693;28;20032;-47
2024/01/30 11:12:27;;;;;;;13.45;3.80;;;;;;;19.90;39.84;100261.34;5092959;28;20091;-47